createdAt,value
2017-11-22T00:01:26.780Z,9.80
2017-11-22T00:03:56.057Z,9.90
2017-11-22T00:06:24.337Z,9.90
2017-11-22T00:08:52.649Z,9.90
2017-11-22T00:11:20.922Z,9.90
2017-11-22T00:13:49.189Z,9.90
2017-11-22T00:16:17.488Z,9.90
2017-11-22T00:18:45.757Z,9.90
2017-11-22T00:21:14.018Z,9.90
2017-11-22T00:23:41.564Z,9.80
2017-11-22T00:26:09.820Z,9.80
2017-11-22T00:28:38.073Z,9.90
2017-11-22T00:31:06.372Z,9.90
2017-11-22T00:33:34.629Z,9.90
2017-11-22T00:36:02.886Z,10.00
2017-11-22T00:38:31.184Z,10.00
2017-11-22T00:40:59.444Z,10.00
2017-11-22T00:43:27.703Z,10.00
2017-11-22T00:45:57.216Z,10.00
2017-11-22T00:48:26.776Z,9.90
2017-11-22T00:50:56.055Z,9.90
2017-11-22T00:53:24.319Z,9.90
2017-11-22T00:55:52.624Z,9.90
2017-11-22T00:58:20.887Z,10.00
2017-11-22T01:00:49.149Z,10.00
2017-11-22T01:03:17.441Z,10.00
2017-11-22T01:05:45.749Z,10.00
2017-11-22T01:08:14.016Z,10.00
2017-11-22T01:10:42.799Z,10.00
2017-11-22T01:13:11.116Z,10.10
2017-11-22T01:15:39.386Z,10.00
2017-11-22T01:18:07.655Z,10.00
2017-11-22T01:20:35.947Z,10.00
2017-11-22T01:23:04.206Z,10.10
2017-11-22T01:25:32.516Z,10.00
2017-11-22T01:28:00.779Z,10.10
2017-11-22T01:30:29.559Z,10.00
2017-11-22T01:32:57.852Z,10.00
2017-11-22T01:35:32.076Z,10.00
2017-11-22T01:38:00.365Z,10.00
2017-11-22T01:40:32.478Z,10.00
2017-11-22T01:43:00.772Z,10.00
2017-11-22T01:45:29.024Z,10.00
2017-11-22T01:47:57.284Z,10.10
2017-11-22T01:50:27.376Z,10.10
2017-11-22T01:52:56.761Z,10.10
2017-11-22T01:55:25.928Z,10.10
2017-11-22T01:57:54.245Z,10.10
2017-11-22T02:00:22.848Z,10.10
2017-11-22T02:02:51.105Z,10.10
2017-11-22T02:05:19.360Z,10.10
2017-11-22T02:07:47.649Z,10.10
2017-11-22T02:10:20.848Z,10.10
2017-11-22T02:12:49.149Z,10.00
2017-11-22T02:15:17.452Z,10.00
2017-11-22T02:17:45.716Z,10.10
2017-11-22T02:20:13.982Z,10.10
2017-11-22T02:22:42.272Z,10.20
2017-11-22T02:25:10.576Z,10.20
2017-11-22T02:27:38.872Z,10.10
2017-11-22T02:30:07.526Z,10.10
2017-11-22T02:32:35.802Z,10.10
2017-11-22T02:35:04.091Z,10.10
2017-11-22T02:37:32.364Z,10.10
2017-11-22T02:40:00.532Z,10.10
2017-11-22T02:42:28.797Z,10.10
2017-11-22T02:44:57.086Z,10.10
2017-11-22T02:47:26.330Z,10.10
2017-11-22T02:49:55.613Z,10.10
2017-11-22T02:52:25.510Z,10.20
2017-11-22T02:54:53.820Z,10.10
2017-11-22T02:57:22.133Z,10.20
2017-11-22T02:59:50.393Z,10.10
2017-11-22T03:02:18.696Z,10.10
2017-11-22T03:04:46.957Z,10.10
2017-11-22T03:07:16.216Z,10.20
2017-11-22T03:09:44.505Z,10.20
2017-11-22T03:12:12.799Z,10.10
2017-11-22T03:14:41.070Z,10.10
2017-11-22T03:17:09.339Z,10.20
2017-11-22T03:19:37.624Z,10.20
2017-11-22T03:22:05.907Z,10.30
2017-11-22T03:24:34.168Z,10.20
2017-11-22T03:27:02.473Z,10.20
2017-11-22T03:29:30.747Z,10.20
2017-11-22T03:31:59.021Z,10.10
2017-11-22T03:34:27.313Z,10.20
2017-11-22T03:36:56.381Z,10.10
2017-11-22T03:39:26.042Z,10.20
2017-11-22T03:41:54.337Z,10.20
2017-11-22T03:44:22.642Z,10.20
2017-11-22T03:46:50.946Z,10.30
2017-11-22T03:49:19.233Z,10.20
2017-11-22T03:51:53.088Z,10.20
2017-11-22T03:54:21.390Z,10.30
2017-11-22T03:56:49.655Z,10.20
2017-11-22T03:59:17.954Z,10.20
2017-11-22T04:01:46.788Z,10.30
2017-11-22T04:04:16.901Z,10.30
2017-11-22T04:06:46.289Z,10.30
2017-11-22T04:09:14.560Z,10.30
2017-11-22T04:11:42.869Z,10.30
2017-11-22T04:14:11.142Z,10.30
2017-11-22T04:16:39.418Z,10.30
2017-11-22T04:19:13.453Z,10.30
2017-11-22T04:21:41.729Z,10.30
2017-11-22T04:24:10.033Z,10.40
2017-11-22T04:26:38.327Z,10.40
2017-11-22T04:29:06.590Z,10.30
2017-11-22T04:31:34.849Z,10.30
2017-11-22T04:34:03.145Z,10.30
2017-11-22T04:36:31.424Z,10.30
2017-11-22T04:38:59.717Z,10.20
2017-11-22T04:41:28.007Z,10.30
2017-11-22T04:43:56.311Z,10.30
2017-11-22T04:46:25.627Z,10.30
2017-11-22T04:48:53.884Z,10.30
2017-11-22T04:51:22.219Z,10.30
2017-11-22T04:53:50.485Z,10.30
2017-11-22T04:56:18.782Z,10.30
2017-11-22T04:58:47.080Z,10.30
2017-11-22T05:01:16.379Z,10.30
2017-11-22T05:03:45.441Z,10.40
2017-11-22T05:06:13.709Z,10.30
2017-11-22T05:08:42.409Z,10.30
2017-11-22T05:11:10.669Z,10.30
2017-11-22T05:13:38.936Z,10.30
2017-11-22T05:16:07.230Z,10.40
2017-11-22T05:18:35.524Z,10.30
2017-11-22T05:21:03.783Z,10.30
2017-11-22T05:23:32.073Z,10.30
2017-11-22T05:26:00.344Z,10.20
2017-11-22T05:28:28.644Z,10.20
2017-11-22T05:30:56.900Z,10.40
2017-11-22T05:33:25.208Z,10.30
2017-11-22T05:35:53.472Z,10.30
2017-11-22T05:38:21.730Z,10.30
2017-11-22T05:40:50.045Z,10.20
2017-11-22T05:43:18.332Z,10.20
2017-11-22T05:45:47.744Z,10.20
2017-11-22T05:48:16.338Z,10.10
2017-11-22T05:50:44.599Z,10.10
2017-11-22T05:53:12.897Z,10.10
2017-11-22T05:55:41.161Z,10.10
2017-11-22T05:58:09.440Z,10.10
2017-11-22T06:00:43.389Z,10.10
2017-11-22T06:03:11.688Z,10.10
2017-11-22T06:05:39.948Z,10.10
2017-11-22T06:08:08.256Z,10.10
2017-11-22T06:10:36.517Z,10.10
2017-11-22T06:13:04.791Z,10.10
2017-11-22T06:15:33.094Z,10.10
2017-11-22T06:18:01.369Z,10.10
2017-11-22T06:20:29.664Z,10.10
2017-11-22T06:22:57.918Z,10.20
2017-11-22T06:25:26.179Z,10.10
2017-11-22T06:27:55.442Z,10.10
2017-11-22T06:30:30.305Z,10.10
2017-11-22T06:32:59.597Z,10.10
2017-11-22T06:35:27.893Z,10.10
2017-11-22T06:37:56.243Z,10.20
2017-11-22T06:40:25.853Z,10.10
2017-11-22T06:42:54.157Z,10.10
2017-11-22T06:45:22.457Z,10.10
2017-11-22T06:47:50.774Z,10.10
2017-11-22T06:50:19.031Z,10.10
2017-11-22T06:52:47.294Z,10.10
2017-11-22T06:55:16.640Z,10.00
2017-11-22T06:57:44.959Z,10.00
2017-11-22T07:00:13.265Z,10.10
2017-11-22T07:02:47.349Z,10.10
2017-11-22T07:05:16.213Z,10.00
2017-11-22T07:07:44.473Z,10.00
2017-11-22T07:10:13.239Z,10.10
2017-11-22T07:12:41.541Z,10.10
2017-11-22T07:15:09.800Z,10.10
2017-11-22T07:17:38.098Z,10.10
2017-11-22T07:20:06.365Z,10.00
2017-11-22T07:22:34.656Z,10.10
2017-11-22T07:25:02.925Z,10.10
2017-11-22T07:27:31.231Z,10.10
2017-11-22T07:30:00.149Z,10.10
2017-11-22T07:32:28.448Z,10.10
2017-11-22T07:34:56.715Z,10.10
2017-11-22T07:37:30.677Z,10.10
2017-11-22T07:39:58.980Z,10.10
2017-11-22T07:42:27.237Z,10.10
2017-11-22T07:44:56.184Z,10.10
2017-11-22T07:47:26.296Z,10.30
2017-11-22T07:49:55.106Z,10.30
2017-11-22T07:52:23.409Z,10.30
2017-11-22T07:54:51.704Z,10.40
2017-11-22T07:57:26.792Z,10.40
2017-11-22T07:59:55.598Z,10.40
2017-11-22T08:02:25.007Z,10.50
2017-11-22T08:04:53.272Z,10.60
2017-11-22T08:07:20.809Z,10.50
2017-11-22T08:09:49.069Z,10.60
2017-11-22T08:12:17.673Z,10.60
2017-11-22T08:14:45.928Z,10.60
2017-11-22T08:17:14.220Z,10.60
2017-11-22T08:19:42.484Z,10.70
2017-11-22T08:22:11.732Z,10.70
2017-11-22T08:24:40.025Z,10.70
2017-11-22T08:27:08.275Z,10.70
2017-11-22T08:29:36.548Z,10.80
2017-11-22T08:32:04.832Z,10.90
2017-11-22T08:34:33.105Z,10.90
2017-11-22T08:37:01.401Z,10.90
2017-11-22T08:39:29.706Z,10.80
2017-11-22T08:41:57.988Z,10.80
2017-11-22T08:44:26.284Z,10.80
2017-11-22T08:46:55.637Z,10.90
2017-11-22T08:49:25.461Z,10.80
2017-11-22T08:51:53.742Z,10.80
2017-11-22T08:54:27.637Z,10.90
2017-11-22T08:57:02.912Z,10.80
2017-11-22T08:59:33.011Z,10.80
2017-11-22T09:02:01.265Z,10.80
2017-11-22T09:04:29.568Z,10.80
2017-11-22T09:06:58.753Z,10.90
2017-11-22T09:09:27.017Z,10.90
2017-11-22T09:11:55.313Z,11.00
2017-11-22T09:14:23.564Z,11.10
2017-11-22T09:16:51.855Z,11.10
2017-11-22T09:19:20.126Z,11.10
2017-11-22T09:21:48.425Z,11.00
2017-11-22T09:24:18.807Z,11.00
2017-11-22T09:26:47.188Z,11.00
2017-11-22T09:29:16.592Z,11.00
2017-11-22T09:31:50.585Z,11.00
2017-11-22T09:34:25.507Z,11.00
2017-11-22T09:36:58.881Z,11.00
2017-11-22T09:39:27.168Z,11.00
2017-11-22T09:41:56.373Z,11.00
2017-11-22T09:44:25.712Z,11.00
2017-11-22T09:46:55.585Z,11.00
2017-11-22T09:49:25.254Z,11.00
2017-11-22T09:51:53.573Z,11.10
2017-11-22T09:54:26.264Z,11.00
2017-11-22T09:56:55.668Z,11.00
2017-11-22T09:59:23.928Z,11.10
2017-11-22T10:01:52.252Z,11.10
2017-11-22T10:04:21.069Z,11.10
2017-11-22T10:06:49.344Z,11.10
2017-11-22T10:09:17.605Z,11.10
2017-11-22T10:11:46.848Z,11.10
2017-11-22T10:14:15.545Z,11.10
2017-11-22T10:16:46.785Z,11.10
2017-11-22T10:19:21.662Z,11.00
2017-11-22T10:21:55.707Z,11.00
2017-11-22T10:24:29.744Z,11.00
2017-11-22T10:26:58.037Z,11.00
2017-11-22T10:29:41.194Z,11.10
2017-11-22T10:32:09.501Z,11.10
2017-11-22T10:34:37.763Z,11.10
2017-11-22T10:37:06.057Z,11.10
2017-11-22T10:39:34.328Z,11.00
2017-11-22T10:42:02.624Z,11.00
2017-11-22T10:44:30.889Z,11.10
2017-11-22T10:46:59.191Z,11.00
2017-11-22T10:49:27.449Z,11.10
2017-11-22T10:51:56.528Z,11.10
2017-11-22T10:54:26.137Z,11.20
2017-11-22T10:56:55.337Z,11.20
2017-11-22T10:59:23.624Z,11.20
2017-11-22T11:01:51.887Z,11.20
2017-11-22T11:04:20.172Z,11.30
2017-11-22T11:06:48.434Z,11.30
2017-11-22T11:09:17.722Z,11.40
2017-11-22T11:11:46.015Z,11.40
2017-11-22T11:14:14.272Z,11.40
2017-11-22T11:16:42.563Z,11.60
2017-11-22T11:19:10.820Z,11.60
2017-11-22T11:21:39.119Z,11.50
2017-11-22T11:24:07.384Z,11.70
2017-11-22T11:26:35.682Z,11.60
2017-11-22T11:29:03.953Z,11.60
2017-11-22T11:31:32.247Z,11.60
2017-11-22T11:34:00.550Z,11.80
2017-11-22T11:36:33.661Z,11.70
2017-11-22T11:39:02.828Z,11.70
2017-11-22T11:41:31.093Z,11.70
2017-11-22T11:43:59.352Z,11.70
2017-11-22T11:46:27.648Z,11.70
2017-11-22T11:48:56.947Z,11.80
2017-11-22T11:51:26.972Z,11.90
2017-11-22T11:53:55.240Z,12.00
2017-11-22T11:56:23.502Z,12.00
2017-11-22T11:58:51.787Z,12.10
2017-11-22T12:01:20.093Z,12.20
2017-11-22T12:03:48.361Z,12.30
2017-11-22T12:06:17.525Z,12.40
2017-11-22T12:08:46.471Z,12.40
2017-11-22T12:11:14.727Z,12.30
2017-11-22T12:13:43.022Z,12.30
2017-11-22T12:16:11.288Z,12.30
2017-11-22T12:18:39.663Z,12.30
2017-11-22T12:21:09.709Z,12.30
2017-11-22T12:23:38.001Z,12.40
2017-11-22T12:26:06.266Z,12.40
2017-11-22T12:28:34.564Z,12.30
2017-11-22T12:31:02.826Z,12.40
2017-11-22T12:33:31.122Z,12.40
2017-11-22T12:35:59.385Z,12.40
2017-11-22T12:38:27.685Z,12.40
2017-11-22T12:40:57.240Z,12.50
2017-11-22T12:43:28.568Z,12.50
2017-11-22T12:46:03.338Z,12.60
2017-11-22T12:48:32.596Z,12.60
2017-11-22T12:51:00.892Z,12.60
2017-11-22T12:53:29.158Z,12.50
2017-11-22T12:55:57.461Z,12.60
2017-11-22T12:58:26.751Z,12.60
2017-11-22T13:00:56.013Z,12.60
2017-11-22T13:03:24.313Z,12.60
2017-11-22T13:05:52.577Z,12.60
2017-11-22T13:08:20.868Z,12.60
2017-11-22T13:10:55.757Z,12.70
2017-11-22T13:13:25.827Z,12.70
2017-11-22T13:15:54.741Z,12.70
2017-11-22T13:18:23.000Z,12.70
2017-11-22T13:20:51.293Z,12.70
2017-11-22T13:23:19.561Z,12.70
2017-11-22T13:25:47.864Z,12.70
2017-11-22T13:28:16.129Z,12.80
2017-11-22T13:30:44.445Z,12.80
2017-11-22T13:33:12.714Z,12.90
2017-11-22T13:35:40.981Z,12.90
2017-11-22T13:38:09.261Z,12.80
2017-11-22T13:40:37.543Z,12.70
2017-11-22T13:43:05.045Z,12.70
2017-11-22T13:45:33.335Z,12.70
2017-11-22T13:48:01.597Z,12.70
2017-11-22T13:50:29.902Z,12.70
2017-11-22T13:52:58.169Z,12.70
2017-11-22T13:55:26.452Z,12.70
2017-11-22T13:57:56.168Z,12.60
2017-11-22T14:00:25.974Z,12.70
2017-11-22T14:02:54.253Z,12.70
2017-11-22T14:05:22.556Z,12.60
2017-11-22T14:07:50.822Z,12.60
2017-11-22T14:10:19.077Z,12.50
2017-11-22T14:12:47.374Z,12.50
2017-11-22T14:15:15.680Z,12.50
2017-11-22T14:17:43.976Z,12.40
2017-11-22T14:20:12.553Z,12.40
2017-11-22T14:22:40.813Z,12.30
2017-11-22T14:25:09.105Z,12.30
2017-11-22T14:27:37.368Z,12.20
2017-11-22T14:30:05.657Z,12.20
2017-11-22T14:32:33.917Z,12.10
2017-11-22T14:35:02.216Z,12.10
2017-11-22T14:37:29.713Z,12.10
2017-11-22T14:39:58.676Z,12.00
2017-11-22T14:42:26.963Z,11.90
2017-11-22T14:44:55.629Z,11.90
2017-11-22T14:47:25.638Z,11.80
2017-11-22T14:49:55.485Z,11.80
2017-11-22T14:52:26.376Z,11.80
2017-11-22T14:54:56.041Z,11.70
2017-11-22T14:57:25.809Z,11.70
2017-11-22T14:59:54.897Z,11.60
2017-11-22T15:02:23.187Z,11.70
2017-11-22T15:04:51.444Z,11.70
2017-11-22T15:07:22.050Z,11.70
2017-11-22T15:09:50.312Z,11.60
2017-11-22T15:12:18.564Z,11.50
2017-11-22T15:14:46.851Z,11.60
2017-11-22T15:17:15.885Z,11.50
2017-11-22T15:19:44.185Z,11.50
2017-11-22T15:22:12.443Z,11.40
2017-11-22T15:24:40.700Z,11.30
2017-11-22T15:27:09.000Z,11.30
2017-11-22T15:29:37.287Z,11.30
2017-11-22T15:32:05.574Z,11.20
2017-11-22T15:34:33.117Z,11.20
2017-11-22T15:37:01.377Z,11.20
2017-11-22T15:39:29.641Z,11.20
2017-11-22T15:41:57.933Z,11.10
2017-11-22T15:44:26.193Z,11.20
2017-11-22T15:46:55.614Z,11.20
2017-11-22T15:49:24.707Z,11.10
2017-11-22T15:51:53.009Z,11.20
2017-11-22T15:54:21.299Z,11.20
2017-11-22T15:56:49.561Z,11.10
2017-11-22T15:59:17.902Z,11.10
2017-11-22T16:01:46.198Z,11.00
2017-11-22T16:04:14.457Z,11.00
2017-11-22T16:06:42.753Z,11.00
2017-11-22T16:09:11.010Z,10.90
2017-11-22T16:11:39.308Z,10.90
2017-11-22T16:14:07.572Z,10.80
2017-11-22T16:16:35.832Z,10.80
2017-11-22T16:19:04.170Z,10.70
2017-11-22T16:21:32.445Z,10.70
2017-11-22T16:24:00.736Z,10.70
2017-11-22T16:26:29.002Z,10.70
2017-11-22T16:28:57.311Z,10.70
2017-11-22T16:31:26.693Z,10.70
2017-11-22T16:33:55.737Z,10.60
2017-11-22T16:36:23.261Z,10.60
2017-11-22T16:38:51.541Z,10.50
2017-11-22T16:41:19.840Z,10.50
2017-11-22T16:43:48.175Z,10.40
2017-11-22T16:46:17.875Z,10.50
2017-11-22T16:48:46.680Z,10.40
2017-11-22T16:51:14.998Z,10.40
2017-11-22T16:53:43.288Z,10.40
2017-11-22T16:56:11.545Z,10.50
2017-11-22T16:58:39.840Z,10.50
2017-11-22T17:01:08.100Z,10.50
2017-11-22T17:03:36.393Z,10.50
2017-11-22T17:06:04.679Z,10.40
2017-11-22T17:08:33.022Z,10.40
2017-11-22T17:11:01.317Z,10.40
2017-11-22T17:13:29.617Z,10.30
2017-11-22T17:15:57.950Z,10.30
2017-11-22T17:18:26.856Z,10.40
2017-11-22T17:20:55.201Z,10.30
2017-11-22T17:23:23.520Z,10.30
2017-11-22T17:25:51.789Z,10.30
2017-11-22T17:28:20.105Z,10.30
2017-11-22T17:30:48.457Z,10.30
2017-11-22T17:33:17.843Z,10.30
2017-11-22T17:35:47.131Z,10.30
2017-11-22T17:38:15.793Z,10.20
2017-11-22T17:40:44.099Z,10.10
2017-11-22T17:43:17.488Z,10.20
2017-11-22T17:45:46.258Z,10.20
2017-11-22T17:48:14.598Z,10.20
2017-11-22T17:50:43.819Z,10.10
2017-11-22T17:53:12.171Z,10.10
2017-11-22T17:55:40.464Z,10.00
2017-11-22T17:58:08.766Z,10.10
2017-11-22T18:00:37.148Z,10.10
2017-11-22T18:03:05.458Z,10.10
2017-11-22T18:05:33.770Z,10.00
2017-11-22T18:08:02.062Z,10.00
2017-11-22T18:10:30.371Z,10.00
2017-11-22T18:12:58.652Z,10.00
2017-11-22T18:15:26.875Z,10.00
2017-11-22T18:17:55.594Z,9.90
2017-11-22T18:20:23.854Z,9.90
2017-11-22T18:22:52.170Z,9.90
2017-11-22T18:25:20.471Z,9.90
2017-11-22T18:27:48.799Z,9.90
2017-11-22T18:30:18.003Z,9.80
2017-11-22T18:32:46.267Z,9.70
2017-11-22T18:35:14.619Z,9.80
2017-11-22T18:37:42.922Z,9.80
2017-11-22T18:40:11.231Z,9.80
2017-11-22T18:42:39.516Z,9.70
2017-11-22T18:45:07.778Z,9.70
2017-11-22T18:47:36.124Z,9.70
2017-11-22T18:50:04.372Z,9.70
2017-11-22T18:52:32.694Z,9.70
2017-11-22T18:55:00.976Z,9.60
2017-11-22T18:57:29.274Z,9.60
2017-11-22T18:59:57.605Z,9.60
2017-11-22T19:02:26.688Z,9.50
2017-11-22T19:04:55.568Z,9.60
2017-11-22T19:07:25.130Z,9.60
2017-11-22T19:09:53.426Z,9.50
2017-11-22T19:12:21.717Z,9.50
2017-11-22T19:14:49.968Z,9.60
2017-11-22T19:17:21.730Z,9.50
2017-11-22T19:19:50.056Z,9.50
2017-11-22T19:22:18.347Z,9.40
2017-11-22T19:24:47.117Z,9.40
2017-11-22T19:27:15.876Z,9.40
2017-11-22T19:29:44.166Z,9.60
2017-11-22T19:32:12.416Z,9.50
2017-11-22T19:34:40.664Z,9.40
2017-11-22T19:37:08.993Z,9.40
2017-11-22T19:39:37.333Z,9.40
2017-11-22T19:42:05.635Z,9.30
2017-11-22T19:44:33.210Z,9.30
2017-11-22T19:47:01.528Z,9.30
2017-11-22T19:49:29.843Z,9.30
2017-11-22T19:51:58.178Z,9.30
2017-11-22T19:54:26.775Z,9.20
2017-11-22T19:56:55.980Z,9.20
2017-11-22T19:59:24.277Z,9.20
2017-11-22T20:01:52.579Z,9.20
2017-11-22T20:04:20.911Z,9.10
2017-11-22T20:07:00.916Z,9.10
2017-11-22T20:09:29.280Z,9.10
2017-11-22T20:11:57.578Z,9.20
2017-11-22T20:14:26.560Z,9.10
2017-11-22T20:16:55.720Z,9.10
2017-11-22T20:19:24.661Z,9.20
2017-11-22T20:21:52.929Z,9.20
2017-11-22T20:24:21.220Z,9.10
2017-11-22T20:26:49.562Z,9.00
2017-11-22T20:29:18.191Z,9.00
2017-11-22T20:31:46.527Z,9.00
2017-11-22T20:34:14.067Z,9.00
2017-11-22T20:36:42.418Z,9.00
2017-11-22T20:39:10.724Z,9.00
2017-11-22T20:41:39.030Z,9.00
2017-11-22T20:44:07.338Z,9.10
2017-11-22T20:46:35.640Z,9.00
2017-11-22T20:49:03.947Z,9.00
2017-11-22T20:51:32.285Z,9.00
2017-11-22T20:54:00.596Z,9.10
2017-11-22T20:56:28.908Z,9.10
2017-11-22T20:58:57.138Z,9.10
2017-11-22T21:01:26.069Z,9.00
2017-11-22T21:03:55.416Z,9.00
2017-11-22T21:06:23.729Z,8.90
2017-11-22T21:08:52.005Z,9.00
2017-11-22T21:11:20.343Z,8.90
2017-11-22T21:13:48.615Z,8.90
2017-11-22T21:16:17.728Z,9.00
2017-11-22T21:18:47.024Z,8.90
2017-11-22T21:21:15.957Z,8.90
2017-11-22T21:23:44.274Z,8.90
2017-11-22T21:26:12.580Z,8.90
2017-11-22T21:28:40.131Z,9.00
2017-11-22T21:31:08.428Z,9.00
2017-11-22T21:33:36.754Z,9.00
2017-11-22T21:36:04.336Z,9.00
2017-11-22T21:38:31.958Z,9.10
2017-11-22T21:41:00.246Z,8.90
2017-11-22T21:43:27.769Z,8.90
2017-11-22T21:45:57.044Z,9.00
2017-11-22T21:48:25.729Z,9.00
2017-11-22T21:50:55.022Z,8.90
2017-11-22T21:53:23.362Z,8.90
2017-11-22T21:55:55.810Z,8.90
2017-11-22T21:58:25.077Z,9.00
2017-11-22T22:00:53.371Z,8.90
2017-11-22T22:03:21.625Z,8.90
2017-11-22T22:05:49.973Z,8.90
2017-11-22T22:08:18.807Z,8.90
2017-11-22T22:10:47.799Z,8.90
2017-11-22T22:13:16.955Z,9.00
2017-11-22T22:15:45.986Z,9.00
2017-11-22T22:18:14.276Z,8.90
2017-11-22T22:20:42.578Z,8.90
2017-11-22T22:23:10.876Z,8.90
2017-11-22T22:25:39.166Z,8.90
2017-11-22T22:28:07.463Z,8.90
2017-11-22T22:30:35.793Z,9.00
2017-11-22T22:33:04.094Z,9.00
2017-11-22T22:35:32.347Z,8.90
2017-11-22T22:38:00.637Z,8.90
2017-11-22T22:40:28.888Z,8.80
2017-11-22T22:42:56.427Z,8.80
2017-11-22T22:45:25.579Z,8.80
2017-11-22T22:47:55.528Z,8.90
2017-11-22T22:50:25.449Z,8.90
2017-11-22T22:52:55.142Z,8.80
2017-11-22T22:55:23.479Z,8.80
2017-11-22T22:57:51.737Z,8.80
2017-11-22T23:00:20.070Z,8.80
2017-11-22T23:02:48.363Z,8.80
2017-11-22T23:05:16.662Z,8.80
2017-11-22T23:07:44.986Z,8.80
2017-11-22T23:10:13.272Z,8.80
2017-11-22T23:12:41.556Z,8.80
2017-11-22T23:15:09.837Z,8.80
2017-11-22T23:17:38.097Z,8.80
2017-11-22T23:20:06.365Z,8.80
2017-11-22T23:22:34.665Z,8.80
2017-11-22T23:25:02.948Z,8.80
2017-11-22T23:27:31.237Z,8.70
2017-11-22T23:29:59.836Z,8.70
2017-11-22T23:32:28.100Z,8.80
2017-11-22T23:34:56.376Z,8.80
2017-11-22T23:37:26.080Z,8.80
2017-11-22T23:39:55.529Z,8.70
2017-11-22T23:42:23.798Z,8.80
2017-11-22T23:44:52.088Z,8.70
2017-11-22T23:47:20.405Z,8.70
2017-11-22T23:49:48.652Z,8.70
2017-11-22T23:52:18.044Z,8.70
2017-11-22T23:54:47.323Z,8.80
2017-11-22T23:57:15.992Z,8.80
2017-11-22T23:59:44.278Z,8.80
